createdAt,value
2024-01-24T00:05:27.821Z,100.00
2024-01-24T00:15:32.309Z,100.00
2024-01-24T00:25:35.031Z,100.00
2024-01-24T00:35:39.449Z,100.00
2024-01-24T00:45:42.238Z,100.00
2024-01-24T00:55:47.426Z,100.00
2024-01-24T01:05:50.701Z,100.00
2024-01-24T01:15:55.209Z,100.00
2024-01-24T01:25:57.980Z,100.00
2024-01-24T01:36:08.948Z,100.00
2024-01-24T01:46:21.000Z,100.00
2024-01-24T01:56:25.873Z,100.00
2024-01-24T02:06:30.093Z,100.00
2024-01-24T02:16:34.354Z,100.00
2024-01-24T02:26:38.707Z,100.00
2024-01-24T02:36:41.491Z,100.00
2024-01-24T02:46:45.496Z,100.00
2024-01-24T02:56:48.378Z,100.00
2024-01-24T03:06:52.795Z,100.00
2024-01-24T03:16:55.581Z,100.00
2024-01-24T03:26:59.705Z,100.00
2024-01-24T03:37:02.703Z,100.00
2024-01-24T03:47:07.267Z,100.00
2024-01-24T03:57:10.069Z,100.00
2024-01-24T04:07:14.156Z,100.00
2024-01-24T04:17:16.929Z,100.00
2024-01-24T04:27:20.885Z,100.00
2024-01-24T04:37:23.732Z,100.00
2024-01-24T04:47:27.990Z,100.00
2024-01-24T04:57:30.860Z,100.00
2024-01-24T05:07:35.647Z,100.00
2024-01-24T05:17:40.228Z,100.00
2024-01-24T05:27:44.490Z,100.00
2024-01-24T05:37:47.377Z,100.00
2024-01-24T05:47:51.595Z,100.00
2024-01-24T05:57:54.523Z,100.00
2024-01-24T06:07:58.703Z,100.00
2024-01-24T06:18:01.558Z,100.00
2024-01-24T06:28:06.388Z,100.00
2024-01-24T06:38:09.272Z,100.00
2024-01-24T06:48:13.707Z,100.00
2024-01-24T06:58:16.549Z,100.00
2024-01-24T07:08:20.745Z,100.00
2024-01-24T07:18:23.681Z,100.00
2024-01-24T07:28:30.292Z,100.00
2024-01-24T07:38:33.366Z,100.00
2024-01-24T07:48:37.706Z,100.00
2024-01-24T07:58:41.911Z,90.74
2024-01-24T08:08:46.349Z,79.75
2024-01-24T08:18:50.472Z,77.44
2024-01-24T08:28:54.721Z,76.40
2024-01-24T08:38:57.492Z,74.14
2024-01-24T08:49:04.083Z,75.68
2024-01-24T08:59:07.249Z,72.15
2024-01-24T09:09:15.240Z,73.62
2024-01-24T09:19:19.053Z,71.38
2024-01-24T09:29:23.517Z,73.72
2024-01-24T09:39:27.025Z,72.69
2024-01-24T09:49:33.129Z,71.54
2024-01-24T09:59:36.045Z,70.06
2024-01-24T10:09:40.178Z,73.32
2024-01-24T10:19:43.395Z,73.22
2024-01-24T10:29:47.712Z,72.04
2024-01-24T10:39:53.572Z,69.51
2024-01-24T10:50:02.227Z,65.60
2024-01-24T11:00:07.164Z,65.88
2024-01-24T11:10:17.918Z,66.45
2024-01-24T11:20:23.205Z,65.35
2024-01-24T11:30:40.569Z,64.02
2024-01-24T11:40:45.230Z,60.79
2024-01-24T11:50:55.846Z,60.65
2024-01-24T12:01:00.879Z,62.98
2024-01-24T12:11:05.885Z,59.37
2024-01-24T12:21:10.410Z,58.63
2024-01-24T12:31:15.086Z,59.07
2024-01-24T12:41:18.476Z,54.52
2024-01-24T12:51:23.161Z,56.87
2024-01-24T13:01:26.072Z,56.84
2024-01-24T13:11:30.420Z,57.59
2024-01-24T13:21:33.867Z,53.74
2024-01-24T13:31:38.025Z,52.39
2024-01-24T13:41:41.070Z,56.01
2024-01-24T13:51:45.821Z,59.26
2024-01-24T14:01:54.066Z,60.51
2024-01-24T14:12:04.048Z,60.03
2024-01-24T14:22:07.619Z,59.28
2024-01-24T14:32:12.109Z,56.82
2024-01-24T14:42:15.089Z,57.56
2024-01-24T14:52:19.313Z,59.94
2024-01-24T15:02:22.102Z,61.17
2024-01-24T15:12:28.558Z,63.23
2024-01-24T15:22:31.648Z,65.65
2024-01-24T15:32:35.874Z,66.59
2024-01-24T15:42:42.952Z,67.47
2024-01-24T15:52:48.415Z,67.58
2024-01-24T16:02:51.437Z,67.73
2024-01-24T16:12:59.478Z,67.12
2024-01-24T16:23:02.440Z,66.35
2024-01-24T16:33:06.811Z,66.02
2024-01-24T16:43:10.309Z,67.81
2024-01-24T16:53:14.788Z,68.19
2024-01-24T17:03:17.578Z,68.97
2024-01-24T17:13:22.904Z,68.16
2024-01-24T17:23:25.766Z,69.79
2024-01-24T17:33:30.247Z,70.41
2024-01-24T17:43:35.084Z,71.30
2024-01-24T17:53:39.869Z,72.29
2024-01-24T18:03:42.725Z,73.14
2024-01-24T18:13:46.912Z,73.00
2024-01-24T18:23:50.004Z,72.51
2024-01-24T18:33:56.377Z,73.73
2024-01-24T18:43:59.352Z,74.96
2024-01-24T18:54:03.798Z,74.99
2024-01-24T19:04:06.842Z,75.26
2024-01-24T19:14:11.252Z,75.40
2024-01-24T19:24:14.354Z,76.21
2024-01-24T19:34:18.403Z,76.73
2024-01-24T19:44:23.091Z,77.38
2024-01-24T19:54:27.977Z,76.83
2024-01-24T20:04:31.380Z,77.71
2024-01-24T20:14:36.824Z,78.28
2024-01-24T20:24:39.917Z,79.03
2024-01-24T20:34:44.194Z,79.93
2024-01-24T20:44:47.087Z,80.44
2024-01-24T20:54:53.305Z,80.05
2024-01-24T21:04:56.275Z,80.83
2024-01-24T21:15:06.190Z,80.28
2024-01-24T21:25:10.161Z,80.64
2024-01-24T21:35:14.469Z,80.85
2024-01-24T21:45:17.658Z,81.30
2024-01-24T21:55:21.664Z,81.82
2024-01-24T22:05:24.649Z,83.18
2024-01-24T22:15:28.992Z,83.23
2024-01-24T22:25:33.985Z,83.52
2024-01-24T22:35:43.204Z,83.01
2024-01-24T22:45:46.470Z,83.65
2024-01-24T22:55:50.682Z,83.68
2024-01-24T23:05:57.111Z,83.23
2024-01-24T23:16:01.500Z,82.94
2024-01-24T23:26:04.390Z,83.78
2024-01-24T23:36:09.500Z,84.37
2024-01-24T23:46:12.939Z,84.64
2024-01-24T23:56:17.100Z,87.65
